Time;durP1;ratioP1;P1;durP2;ratioP2;P2;SDS_P1;SDS_P2;PMS_P1;PMS_P2;Temp;Humidity;BMP_temperature;BMP_pressure;BME280_temperature;BME280_humidity;BME280_pressure;Samples;Min_cycle;Max_cycle;Signal;HPM_P1;HPM_P2
2023/07/30 00:00:22;;;;;;;;;;;15.50;99.90;;;;;;5077879;28;19916;-85
2023/07/30 00:02:47;;;;;;;;;;;15.50;99.90;;;;;;5079990;28;20173;-88
2023/07/30 00:05:13;;;;;;;;;;;15.50;99.90;;;;;;5060156;28;19916;-86
2023/07/30 00:07:38;;;;;;;;;;;15.50;99.90;;;;;;5078712;28;20041;-87
2023/07/30 00:10:04;;;;;;;;;;;15.40;99.90;;;;;;5065169;28;21041;-86
2023/07/30 00:12:29;;;;;;;;;;;15.40;99.90;;;;;;5061867;28;20429;-86
2023/07/30 00:14:55;;;;;;;;;;;15.40;99.90;;;;;;5062909;28;19916;-85
2023/07/30 00:17:20;;;;;;;;;;;15.40;99.90;;;;;;5067665;28;19977;-86
2023/07/30 00:19:46;;;;;;;;;;;15.40;99.90;;;;;;5082880;28;19916;-87
2023/07/30 00:22:11;;;;;;;;;;;15.40;99.90;;;;;;5065186;28;20359;-86
2023/07/30 00:24:36;;;;;;;;;;;15.40;99.90;;;;;;5065633;28;19939;-85
2023/07/30 00:27:02;;;;;;;;;;;15.40;99.90;;;;;;5058172;28;20369;-85
2023/07/30 00:29:27;;;;;;;;;;;15.30;99.90;;;;;;5073971;28;19923;-87
2023/07/30 00:31:53;;;;;;;;;;;15.30;99.90;;;;;;5063337;28;20088;-86
2023/07/30 00:34:18;;;;;;;;;;;15.30;99.90;;;;;;5062788;28;19927;-86
2023/07/30 00:36:44;;;;;;;;;;;15.30;99.90;;;;;;5061270;28;19989;-84
2023/07/30 00:39:11;;;;;;;;;;;15.30;99.90;;;;;;5063802;28;19947;-86
2023/07/30 00:41:36;;;;;;;;;;;15.30;99.90;;;;;;5062533;28;22256;-86
2023/07/30 00:44:02;;;;;;;;;;;15.30;99.90;;;;;;5059319;28;19915;-86
2023/07/30 00:46:27;;;;;;;;;;;15.30;99.90;;;;;;5058479;28;19975;-85
2023/07/30 00:48:53;;;;;;;;;;;15.20;99.90;;;;;;5078504;28;19955;-87
2023/07/30 00:51:19;;;;;;;;;;;15.20;99.90;;;;;;5063103;28;19926;-87
2023/07/30 00:53:45;;;;;;;;;;;15.20;99.90;;;;;;5078664;28;20007;-86
2023/07/30 00:56:11;;;;;;;;;;;15.30;99.90;;;;;;5062196;28;20050;-88
2023/07/30 00:58:36;;;;;;;;;;;15.20;99.90;;;;;;5079983;28;20346;-86
2023/07/30 01:01:02;;;;;;;;;;;15.20;99.90;;;;;;5077394;28;19916;-85
2023/07/30 01:03:27;;;;;;;;;;;15.10;99.90;;;;;;5075428;28;19920;-87
2023/07/30 01:05:53;;;;;;;;;;;15.10;99.90;;;;;;5076081;28;20094;-87
2023/07/30 01:08:19;;;;;;;;;;;15.10;99.90;;;;;;5073841;28;19917;-87
2023/07/30 01:10:45;;;;;;;;;;;15.10;99.90;;;;;;5056331;28;19924;-86
2023/07/30 01:13:11;;;;;;;;;;;15.10;99.90;;;;;;5062254;28;19928;-87
2023/07/30 01:15:37;;;;;;;;;;;15.00;99.90;;;;;;5058136;28;19923;-86
2023/07/30 01:18:02;;;;;;;;;;;15.00;99.90;;;;;;5059059;28;19923;-86
2023/07/30 01:20:31;;;;;;;;;;;15.00;99.90;;;;;;5060125;28;20003;-86
2023/07/30 01:22:58;;;;;;;;;;;15.00;99.90;;;;;;5057368;28;19916;-86
2023/07/30 01:25:24;;;;;;;;;;;15.00;99.90;;;;;;5056953;28;19913;-86
2023/07/30 01:27:52;;;;;;;;;;;15.00;99.90;;;;;;5058476;28;20427;-86
2023/07/30 01:30:18;;;;;;;;;;;15.00;99.90;;;;;;5059525;28;19990;-85
2023/07/30 01:32:44;;;;;;;;;;;15.00;99.90;;;;;;5073604;28;19924;-87
2023/07/30 01:35:10;;;;;;;;;;;14.90;99.90;;;;;;5057876;28;19926;-86
2023/07/30 01:37:37;;;;;;;;;;;14.90;99.90;;;;;;5063766;28;20781;-87
2023/07/30 01:40:03;;;;;;;;;;;14.90;99.90;;;;;;5057914;28;19979;-86
2023/07/30 01:42:29;;;;;;;;;;;14.90;99.90;;;;;;5058902;28;19947;-87
2023/07/30 01:44:54;;;;;;;;;;;14.80;99.90;;;;;;5075709;28;19999;-87
2023/07/30 01:47:20;;;;;;;;;;;14.80;99.90;;;;;;5058022;28;19995;-88
2023/07/30 01:49:45;;;;;;;;;;;14.80;99.90;;;;;;5074952;28;20377;-87
2023/07/30 01:52:11;;;;;;;;;;;14.80;99.90;;;;;;5074607;28;20280;-88
2023/07/30 01:54:36;;;;;;;;;;;14.80;99.90;;;;;;5060796;28;19942;-86
2023/07/30 01:57:02;;;;;;;;;;;14.80;99.90;;;;;;5076049;28;19920;-84
2023/07/30 01:59:28;;;;;;;;;;;14.80;99.90;;;;;;5035306;28;19932;-85
2023/07/30 02:01:53;;;;;;;;;;;14.80;99.90;;;;;;5038329;28;19969;-85
2023/07/30 02:04:18;;;;;;;;;;;14.80;99.90;;;;;;5033377;28;19923;-85
2023/07/30 02:06:44;;;;;;;;;;;14.80;99.90;;;;;;5035840;28;20362;-86
2023/07/30 02:09:09;;;;;;;;;;;14.80;99.90;;;;;;5033344;28;19917;-84
2023/07/30 02:11:35;;;;;;;;;;;14.80;99.90;;;;;;5033419;28;19956;-88
2023/07/30 02:14:00;;;;;;;;;;;14.90;99.90;;;;;;5039677;28;20358;-87
2023/07/30 02:16:26;;;;;;;;;;;14.90;99.90;;;;;;5052068;28;19943;-85
2023/07/30 02:18:51;;;;;;;;;;;14.90;99.90;;;;;;5034766;28;19916;-86
2023/07/30 02:21:17;;;;;;;;;;;14.90;99.90;;;;;;5034532;28;20294;-87
2023/07/30 02:23:42;;;;;;;;;;;15.00;99.90;;;;;;5037147;28;19948;-87
2023/07/30 02:26:08;;;;;;;;;;;15.00;99.90;;;;;;5035815;28;19945;-87
2023/07/30 02:28:33;;;;;;;;;;;15.00;99.90;;;;;;5039414;28;20374;-87
2023/07/30 02:30:58;;;;;;;;;;;15.00;99.90;;;;;;5034353;28;19917;-87
2023/07/30 02:33:24;;;;;;;;;;;15.10;99.90;;;;;;5033945;28;19925;-87
2023/07/30 02:35:49;;;;;;;;;;;15.10;99.90;;;;;;5034696;28;20325;-86
2023/07/30 02:38:15;;;;;;;;;;;15.10;99.90;;;;;;5035715;28;19917;-87
2023/07/30 02:40:40;;;;;;;;;;;15.20;99.90;;;;;;5038671;28;19917;-86
2023/07/30 02:43:06;;;;;;;;;;;15.20;99.90;;;;;;5034860;28;19967;-86
2023/07/30 02:45:31;;;;;;;;;;;15.20;99.90;;;;;;5032633;28;19948;-86
2023/07/30 02:47:57;;;;;;;;;;;15.30;99.90;;;;;;5038802;28;19924;-88
2023/07/30 02:50:22;;;;;;;;;;;15.30;99.90;;;;;;5037954;28;19916;-87
2023/07/30 02:52:48;;;;;;;;;;;15.30;99.90;;;;;;5042447;28;19969;-86
2023/07/30 02:55:13;;;;;;;;;;;15.40;99.90;;;;;;5042126;28;19917;-88
2023/07/30 02:57:38;;;;;;;;;;;15.40;99.90;;;;;;5051194;28;20370;-86
2023/07/30 03:00:04;;;;;;;;;;;15.40;99.90;;;;;;5060759;28;19920;-86
2023/07/30 03:02:30;;;;;;;;;;;15.40;99.90;;;;;;5058134;28;20181;-86
2023/07/30 03:04:55;;;;;;;;;;;15.40;99.90;;;;;;5077978;28;20457;-86
2023/07/30 03:07:21;;;;;;;;;;;15.40;99.90;;;;;;5078447;28;19920;-87
2023/07/30 03:09:46;;;;;;;;;;;15.30;99.90;;;;;;5059123;28;19928;-86
2023/07/30 03:12:13;;;;;;;;;;;15.30;99.90;;;;;;5078856;28;19924;-87
2023/07/30 03:14:38;;;;;;;;;;;15.40;99.90;;;;;;5079528;28;19940;-87
2023/07/30 03:17:04;;;;;;;;;;;15.40;99.90;;;;;;5064059;28;19932;-87
2023/07/30 03:19:30;;;;;;;;;;;15.40;99.90;;;;;;5059013;28;19916;-87
2023/07/30 03:21:55;;;;;;;;;;;15.40;99.90;;;;;;5077968;28;19969;-87
2023/07/30 03:24:21;;;;;;;;;;;15.40;99.90;;;;;;5076808;28;20350;-87
2023/07/30 03:26:46;;;;;;;;;;;15.40;99.90;;;;;;5064753;28;19923;-87
2023/07/30 03:29:12;;;;;;;;;;;15.40;99.90;;;;;;5078216;28;20011;-87
2023/07/30 03:31:37;;;;;;;;;;;15.40;99.90;;;;;;5064287;28;19927;-87
2023/07/30 03:34:03;;;;;;;;;;;15.40;99.90;;;;;;5060509;28;19932;-88
2023/07/30 03:36:28;;;;;;;;;;;15.50;99.90;;;;;;5078940;28;20030;-87
2023/07/30 03:38:54;;;;;;;;;;;15.40;99.90;;;;;;5077290;28;20282;-88
2023/07/30 03:41:19;;;;;;;;;;;15.50;99.90;;;;;;5063499;28;19924;-87
2023/07/30 03:43:44;;;;;;;;;;;15.40;99.90;;;;;;5059772;28;19922;-85
2023/07/30 03:46:10;;;;;;;;;;;15.50;99.90;;;;;;5063543;28;19916;-87
2023/07/30 03:48:36;;;;;;;;;;;15.40;99.90;;;;;;5058442;28;20426;-86
2023/07/30 03:51:01;;;;;;;;;;;15.40;99.90;;;;;;5064070;28;20013;-88
2023/07/30 03:53:27;;;;;;;;;;;15.40;99.90;;;;;;5061026;28;19973;-87
2023/07/30 03:55:52;;;;;;;;;;;15.50;99.90;;;;;;5065111;28;20437;-87
2023/07/30 03:58:17;;;;;;;;;;;15.50;99.90;;;;;;5062722;28;20191;-87
2023/07/30 04:00:43;;;;;;;;;;;15.50;99.90;;;;;;5067643;28;19919;-87
2023/07/30 04:03:08;;;;;;;;;;;15.50;99.90;;;;;;5057971;28;20540;-87
2023/07/30 04:05:34;;;;;;;;;;;15.50;99.90;;;;;;5062982;28;19985;-89
2023/07/30 04:08:00;;;;;;;;;;;15.50;99.90;;;;;;5064446;28;19999;-89
2023/07/30 04:10:25;;;;;;;;;;;15.50;99.90;;;;;;5061401;28;20317;-87
2023/07/30 04:12:51;;;;;;;;;;;15.50;99.90;;;;;;5060729;28;20302;-87
2023/07/30 04:15:16;;;;;;;;;;;15.50;99.90;;;;;;5078794;28;19916;-87
2023/07/30 04:17:42;;;;;;;;;;;15.50;99.90;;;;;;5065005;28;19927;-87
2023/07/30 04:20:09;;;;;;;;;;;15.50;99.90;;;;;;5059386;28;20017;-87
2023/07/30 04:22:35;;;;;;;;;;;15.50;99.90;;;;;;5076676;28;19916;-88
2023/07/30 04:25:00;;;;;;;;;;;15.50;99.90;;;;;;5065256;28;19922;-87
2023/07/30 04:27:26;;;;;;;;;;;15.50;99.90;;;;;;5060563;28;19921;-86
2023/07/30 04:29:51;;;;;;;;;;;15.50;99.90;;;;;;5059038;28;19927;-87
2023/07/30 04:32:17;;;;;;;;;;;15.50;99.90;;;;;;5060187;28;20462;-88
2023/07/30 04:34:42;;;;;;;;;;;15.60;99.90;;;;;;5062615;28;20061;-87
2023/07/30 04:37:08;;;;;;;;;;;15.60;99.90;;;;;;5077762;28;19923;-87
2023/07/30 04:39:34;;;;;;;;;;;15.60;99.90;;;;;;5078021;28;19920;-88
2023/07/30 04:41:59;;;;;;;;;;;15.60;99.90;;;;;;5061351;28;20310;-86
2023/07/30 04:44:25;;;;;;;;;;;15.70;99.90;;;;;;5074918;28;20008;-86
2023/07/30 04:46:50;;;;;;;;;;;15.70;99.90;;;;;;5076089;28;19912;-86
2023/07/30 04:49:16;;;;;;;;;;;15.80;99.90;;;;;;5059787;28;20358;-85
2023/07/30 04:51:42;;;;;;;;;;;15.80;99.90;;;;;;5078526;28;19920;-86
2023/07/30 04:54:07;;;;;;;;;;;15.80;99.90;;;;;;5063352;28;20380;-87
2023/07/30 04:56:33;;;;;;;;;;;15.80;99.90;;;;;;5062816;28;19956;-87
2023/07/30 04:58:58;;;;;;;;;;;15.90;99.90;;;;;;5063445;28;19924;-87
2023/07/30 05:01:24;;;;;;;;;;;15.90;99.90;;;;;;5058092;28;20015;-86
2023/07/30 05:03:50;;;;;;;;;;;16.00;99.90;;;;;;5059951;28;20358;-87
2023/07/30 05:06:15;;;;;;;;;;;16.00;99.90;;;;;;5058612;28;19913;-86
2023/07/30 05:08:41;;;;;;;;;;;16.10;99.90;;;;;;5061159;28;19969;-88
2023/07/30 05:11:06;;;;;;;;;;;16.00;99.90;;;;;;5079360;28;19916;-86
2023/07/30 05:13:32;;;;;;;;;;;16.00;99.90;;;;;;5062861;28;19924;-87
2023/07/30 05:15:57;;;;;;;;;;;16.10;99.90;;;;;;5059322;28;19916;-87
2023/07/30 05:18:22;;;;;;;;;;;16.10;99.90;;;;;;5077126;28;19966;-88
2023/07/30 05:20:48;;;;;;;;;;;16.10;99.90;;;;;;5062237;28;20335;-87
2023/07/30 05:23:14;;;;;;;;;;;16.10;99.90;;;;;;5063504;28;19927;-86
2023/07/30 05:25:39;;;;;;;;;;;16.20;99.90;;;;;;5060522;28;19961;-88
2023/07/30 05:28:05;;;;;;;;;;;16.20;99.90;;;;;;5061947;28;19959;-86
2023/07/30 05:30:30;;;;;;;;;;;16.20;99.90;;;;;;5062620;28;19916;-86
2023/07/30 05:32:56;;;;;;;;;;;16.20;99.90;;;;;;5077771;28;19928;-87
2023/07/30 05:35:23;;;;;;;;;;;16.30;99.90;;;;;;5059414;28;20215;-87
2023/07/30 05:37:49;;;;;;;;;;;16.40;99.90;;;;;;5062493;28;20014;-86
2023/07/30 05:40:14;;;;;;;;;;;16.40;99.90;;;;;;5060569;28;19923;-87
2023/07/30 05:42:39;;;;;;;;;;;16.50;99.90;;;;;;5060896;28;20354;-87
2023/07/30 05:45:05;;;;;;;;;;;16.50;99.90;;;;;;5057408;28;19965;-86
2023/07/30 05:47:31;;;;;;;;;;;16.50;99.90;;;;;;5057980;28;20286;-87
2023/07/30 05:49:56;;;;;;;;;;;16.50;99.90;;;;;;5058780;28;20326;-87
2023/07/30 05:52:22;;;;;;;;;;;16.50;99.90;;;;;;5057694;28;19928;-87
2023/07/30 05:54:47;;;;;;;;;;;16.50;99.90;;;;;;5076616;28;19916;-87
2023/07/30 05:57:13;;;;;;;;;;;16.60;99.90;;;;;;5075299;28;19917;-87
2023/07/30 05:59:38;;;;;;;;;;;16.70;99.90;;;;;;5057529;28;19928;-86
2023/07/30 06:02:04;;;;;;;;;;;16.80;99.90;;;;;;5074258;28;19924;-87
2023/07/30 06:04:30;;;;;;;;;;;16.80;99.90;;;;;;5057077;28;19916;-88
2023/07/30 06:06:55;;;;;;;;;;;16.80;99.90;;;;;;5076461;28;20018;-85
2023/07/30 06:09:20;;;;;;;;;;;16.90;99.90;;;;;;5078434;28;19916;-85
2023/07/30 06:11:46;;;;;;;;;;;16.90;99.90;;;;;;5060893;28;19963;-87
2023/07/30 06:14:11;;;;;;;;;;;16.90;99.90;;;;;;5056405;28;19927;-86
2023/07/30 06:16:37;;;;;;;;;;;17.00;99.90;;;;;;5062570;28;19913;-86
2023/07/30 06:19:02;;;;;;;;;;;17.00;99.90;;;;;;5076464;28;19909;-86
2023/07/30 06:21:28;;;;;;;;;;;17.10;99.90;;;;;;5072979;28;19920;-85
2023/07/30 06:23:53;;;;;;;;;;;17.10;99.90;;;;;;5059672;28;19960;-86
2023/07/30 06:26:19;;;;;;;;;;;17.10;99.90;;;;;;5062277;28;20293;-87
2023/07/30 06:28:44;;;;;;;;;;;17.20;99.90;;;;;;5061198;28;20021;-87
2023/07/30 06:31:10;;;;;;;;;;;17.20;99.90;;;;;;5078992;28;19943;-87
2023/07/30 06:33:35;;;;;;;;;;;17.20;99.90;;;;;;5070843;28;20065;-86
2023/07/30 06:36:01;;;;;;;;;;;17.20;99.90;;;;;;5082448;28;19913;-85
2023/07/30 06:38:26;;;;;;;;;;;17.30;99.90;;;;;;5080232;28;19916;-86
2023/07/30 06:40:52;;;;;;;;;;;17.30;99.90;;;;;;5064650;28;19924;-85
2023/07/30 06:43:17;;;;;;;;;;;17.30;99.90;;;;;;5061187;28;19923;-86
2023/07/30 06:45:43;;;;;;;;;;;17.30;99.90;;;;;;5077980;28;19941;-87
2023/07/30 06:48:08;;;;;;;;;;;17.40;99.90;;;;;;5078674;28;19946;-87
2023/07/30 06:50:34;;;;;;;;;;;17.40;99.90;;;;;;5082607;28;19916;-87
2023/07/30 06:52:59;;;;;;;;;;;17.50;99.90;;;;;;5078114;28;20037;-87
2023/07/30 06:55:25;;;;;;;;;;;17.60;99.90;;;;;;5078602;28;19923;-86
2023/07/30 06:57:50;;;;;;;;;;;17.70;99.90;;;;;;5077676;28;19920;-86
2023/07/30 07:00:21;;;;;;;;;;;17.70;99.90;;;;;;5076225;28;19920;-85
2023/07/30 07:02:47;;;;;;;;;;;17.80;99.90;;;;;;5057728;28;19919;-86
2023/07/30 07:05:12;;;;;;;;;;;17.90;99.90;;;;;;5077515;28;20379;-86
2023/07/30 07:07:38;;;;;;;;;;;18.00;99.90;;;;;;5080643;28;19922;-87
2023/07/30 07:10:04;;;;;;;;;;;18.00;99.90;;;;;;5063968;28;19943;-85
2023/07/30 07:12:29;;;;;;;;;;;18.00;99.90;;;;;;5073065;28;19928;-87
2023/07/30 07:14:58;;;;;;;;;;;18.10;99.90;;;;;;5059817;28;19923;-89
2023/07/30 07:17:24;;;;;;;;;;;18.00;99.90;;;;;;5066221;28;20019;-85
2023/07/30 07:19:49;;;;;;;;;;;18.10;99.90;;;;;;5077182;28;19920;-89
2023/07/30 07:22:17;;;;;;;;;;;18.10;99.90;;;;;;5064313;28;19916;-85
2023/07/30 07:24:43;;;;;;;;;;;18.10;99.90;;;;;;5081307;28;19919;-89
2023/07/30 07:27:09;;;;;;;;;;;18.20;99.90;;;;;;5067654;28;20480;-86
2023/07/30 07:29:34;;;;;;;;;;;18.40;99.90;;;;;;5063902;28;20055;-87
2023/07/30 07:32:00;;;;;;;;;;;18.40;99.90;;;;;;5059577;28;20281;-87
2023/07/30 07:34:25;;;;;;;;;;;18.50;99.90;;;;;;5078388;28;20301;-86
2023/07/30 07:36:51;;;;;;;;;;;18.40;99.90;;;;;;5069657;28;19960;-87
2023/07/30 07:39:16;;;;;;;;;;;18.40;99.90;;;;;;5067934;28;19919;-88
2023/07/30 07:41:42;;;;;;;;;;;18.40;99.90;;;;;;5081024;28;19931;-87
2023/07/30 07:44:07;;;;;;;;;;;18.50;99.90;;;;;;5085360;28;19926;-87
2023/07/30 07:46:33;;;;;;;;;;;18.70;99.90;;;;;;5077093;28;20842;-89
2023/07/30 07:48:58;;;;;;;;;;;18.90;99.90;;;;;;5067666;28;19927;-89
2023/07/30 07:51:24;;;;;;;;;;;19.00;99.90;;;;;;5061082;28;19920;-88
2023/07/30 07:53:49;;;;;;;;;;;19.00;99.90;;;;;;5061506;28;20054;-86
2023/07/30 07:56:15;;;;;;;;;;;19.00;99.90;;;;;;5080393;28;20000;-88
2023/07/30 07:58:42;;;;;;;;;;;18.90;99.90;;;;;;5068754;28;19931;-85
2023/07/30 08:01:08;;;;;;;;;;;18.90;99.90;;;;;;5064197;28;19974;-89
2023/07/30 08:03:37;;;;;;;;;;;18.90;99.90;;;;;;5060031;28;19920;-88
2023/07/30 08:06:05;;;;;;;;;;;18.80;99.90;;;;;;5061447;28;19917;-88
2023/07/30 08:08:31;;;;;;;;;;;18.70;99.90;;;;;;5065075;28;20393;-89
2023/07/30 08:10:56;;;;;;;;;;;18.70;99.90;;;;;;5061966;28;19917;-90
2023/07/30 08:13:22;;;;;;;;;;;18.70;99.90;;;;;;5063658;28;19935;-87
2023/07/30 08:15:48;;;;;;;;;;;18.70;99.90;;;;;;5068927;28;19916;-88
2023/07/30 08:18:13;;;;;;;;;;;18.90;99.90;;;;;;5079097;28;20344;-87
2023/07/30 08:20:39;;;;;;;;;;;19.00;99.90;;;;;;5078990;28;20296;-88
2023/07/30 08:23:04;;;;;;;;;;;19.10;99.90;;;;;;5059817;28;19917;-88
2023/07/30 08:25:30;;;;;;;;;;;19.20;99.90;;;;;;5073314;28;19916;-88
2023/07/30 08:27:55;;;;;;;;;;;19.30;99.90;;;;;;5077975;28;19942;-87
2023/07/30 08:30:23;;;;;;;;;;;19.30;99.90;;;;;;5062713;28;19916;-87
2023/07/30 08:32:49;;;;;;;;;;;19.30;99.90;;;;;;5074738;28;19928;-89
2023/07/30 08:35:14;;;;;;;;;;;19.30;99.90;;;;;;5061661;28;19916;-87
2023/07/30 08:37:40;;;;;;;;;;;19.30;99.90;;;;;;5063420;28;19950;-88
2023/07/30 08:40:06;;;;;;;;;;;19.20;99.90;;;;;;5058959;28;20060;-85
2023/07/30 08:42:32;;;;;;;;;;;19.20;99.90;;;;;;5063531;28;20029;-86
2023/07/30 08:44:57;;;;;;;;;;;19.20;99.90;;;;;;5061596;28;19947;-86
2023/07/30 08:47:23;;;;;;;;;;;19.40;99.90;;;;;;5062174;28;20041;-86
2023/07/30 08:49:49;;;;;;;;;;;19.50;99.90;;;;;;5059918;28;19920;-84
2023/07/30 08:52:19;;;;;;;;;;;19.60;99.90;;;;;;5078485;28;19920;-87
2023/07/30 08:54:47;;;;;;;;;;;19.90;99.90;;;;;;5076470;28;19961;-87
2023/07/30 08:57:17;;;;;;;;;;;20.10;99.90;;;;;;5060130;28;19956;-86
2023/07/30 08:59:48;;;;;;;;;;;20.10;99.90;;;;;;5076169;28;20058;-86
2023/07/30 09:02:18;;;;;;;;;;;20.00;99.90;;;;;;5075300;28;19922;-85
2023/07/30 09:04:49;;;;;;;;;;;19.90;99.90;;;;;;5061662;28;19920;-88
2023/07/30 09:07:15;;;;;;;;;;;19.90;99.90;;;;;;5061923;28;19934;-87
2023/07/30 09:09:43;;;;;;;;;;;19.80;99.90;;;;;;5057971;28;20001;-88
2023/07/30 09:12:13;;;;;;;;;;;19.70;99.90;;;;;;5076092;28;19938;-87
2023/07/30 09:14:39;;;;;;;;;;;19.70;99.90;;;;;;5060708;28;20598;-87
2023/07/30 09:17:04;;;;;;;;;;;19.70;99.90;;;;;;5061847;28;19919;-89
2023/07/30 09:19:34;;;;;;;;;;;19.60;99.90;;;;;;5062358;28;20299;-87
2023/07/30 09:21:59;;;;;;;;;;;19.60;99.90;;;;;;5082955;28;19920;-87
2023/07/30 09:24:25;;;;;;;;;;;19.80;99.90;;;;;;5073808;28;19920;-86
2023/07/30 09:26:50;;;;;;;;;;;20.10;99.90;;;;;;5072611;28;20389;-86
2023/07/30 09:29:16;;;;;;;;;;;20.20;99.90;;;;;;5061009;28;20524;-88
2023/07/30 09:31:54;;;;;;;;;;;20.40;99.90;;;;;;5073922;28;19984;-87
2023/07/30 09:34:20;;;;;;;;;;;20.60;99.90;;;;;;5063438;28;19924;-86
2023/07/30 09:36:46;;;;;;;;;;;20.70;99.90;;;;;;5082059;28;19920;-87
2023/07/30 09:39:21;;;;;;;;;;;20.80;99.90;;;;;;5080367;28;19916;-88
2023/07/30 09:41:46;;;;;;;;;;;21.20;99.90;;;;;;5075672;28;19955;-87
2023/07/30 09:44:12;;;;;;;;;;;21.80;99.90;;;;;;5060205;28;19966;-88
2023/07/30 09:46:44;;;;;;;;;;;22.50;99.90;;;;;;5076848;28;20652;-89
2023/07/30 09:49:13;;;;;;;;;;;22.90;99.90;;;;;;5063619;28;19965;-89
2023/07/30 09:51:41;;;;;;;;;;;23.60;99.90;;;;;;5061980;28;19916;-88
2023/07/30 09:54:07;;;;;;;;;;;23.90;99.90;;;;;;5058867;28;20018;-88
2023/07/30 09:56:35;;;;;;;;;;;23.40;99.90;;;;;;5062297;28;19916;-89
2023/07/30 09:59:00;;;;;;;;;;;22.90;99.90;;;;;;5065445;28;20432;-88
2023/07/30 10:01:27;;;;;;;;;;;22.40;99.90;;;;;;5064060;28;19917;-89
2023/07/30 10:03:55;;;;;;;;;;;21.90;99.90;;;;;;5064305;28;19917;-87
2023/07/30 10:06:23;;;;;;;;;;;21.50;99.90;;;;;;5059595;28;19916;-87
2023/07/30 10:08:50;;;;;;;;;;;21.20;99.90;;;;;;5062928;28;19916;-86
2023/07/30 10:11:16;;;;;;;;;;;20.80;99.90;;;;;;5058541;28;19920;-87
2023/07/30 10:13:41;;;;;;;;;;;20.70;99.90;;;;;;5058565;28;19978;-87
2023/07/30 10:16:11;;;;;;;;;;;20.50;99.90;;;;;;5062302;28;19912;-87
2023/07/30 10:18:40;;;;;;;;;;;20.40;99.90;;;;;;5061362;28;19974;-85
2023/07/30 10:21:09;;;;;;;;;;;20.40;99.90;;;;;;5057126;28;20035;-87
2023/07/30 10:23:35;;;;;;;;;;;20.40;99.90;;;;;;5062849;28;19920;-86
2023/07/30 10:26:10;;;;;;;;;;;20.40;99.90;;;;;;5059708;28;19943;-87
2023/07/30 10:28:38;;;;;;;;;;;20.50;99.90;;;;;;5060790;28;20007;-87
2023/07/30 10:31:08;;;;;;;;;;;20.50;99.90;;;;;;5056795;28;20054;-86
2023/07/30 10:33:44;;;;;;;;;;;20.50;99.90;;;;;;5060568;28;19931;-88
2023/07/30 10:36:09;;;;;;;;;;;20.50;99.90;;;;;;5061111;28;20027;-87
2023/07/30 10:38:35;;;;;;;;;;;20.60;99.90;;;;;;5061242;28;20039;-87
2023/07/30 10:41:13;;;;;;;;;;;20.60;99.90;;;;;;5042715;28;20667;-87
2023/07/30 10:43:40;;;;;;;;;;;20.60;99.90;;;;;;5056749;28;19920;-86
2023/07/30 10:46:06;;;;;;;;;;;20.60;99.90;;;;;;5059151;28;19917;-87
2023/07/30 10:48:32;;;;;;;;;;;20.70;99.90;;;;;;5060702;28;20281;-88
2023/07/30 10:50:59;;;;;;;;;;;20.80;99.90;;;;;;5064230;28;19939;-88
2023/07/30 10:53:24;;;;;;;;;;;20.90;99.90;;;;;;5062411;28;19935;-87
2023/07/30 10:55:52;;;;;;;;;;;21.30;99.90;;;;;;5060626;28;19917;-90
2023/07/30 10:58:18;;;;;;;;;;;21.70;99.90;;;;;;5058998;28;19940;-86
2023/07/30 11:00:43;;;;;;;;;;;22.40;99.90;;;;;;5060782;28;19946;-89
2023/07/30 11:03:08;;;;;;;;;;;23.50;99.90;;;;;;5066506;28;19936;-90
2023/07/30 11:05:37;;;;;;;;;;;24.20;99.90;;;;;;5061598;28;19920;-89
2023/07/30 11:08:05;;;;;;;;;;;24.90;99.90;;;;;;5058539;28;20377;-88
2023/07/30 11:10:31;;;;;;;;;;;25.40;99.90;;;;;;5061317;28;19923;-86
2023/07/30 11:12:57;;;;;;;;;;;25.80;99.90;;;;;;5059582;28;19924;-85
2023/07/30 11:15:22;;;;;;;;;;;26.40;99.90;;;;;;5060745;28;19913;-87
2023/07/30 11:17:49;;;;;;;;;;;26.20;99.90;;;;;;5062076;28;20428;-87
2023/07/30 11:20:22;;;;;;;;;;;25.90;99.90;;;;;;5060453;28;20515;-88
2023/07/30 11:22:48;;;;;;;;;;;25.50;99.90;;;;;;5073187;28;21113;-85
2023/07/30 11:25:17;;;;;;;;;;;25.30;99.90;;;;;;5060224;28;19920;-88
2023/07/30 11:27:49;;;;;;;;;;;25.30;99.90;;;;;;5072517;28;19920;-86
2023/07/30 11:30:15;;;;;;;;;;;25.30;99.90;;;;;;5072725;28;20511;-87
2023/07/30 11:32:44;;;;;;;;;;;25.40;99.90;;;;;;5060401;28;19925;-86
2023/07/30 11:35:11;;;;;;;;;;;25.90;99.90;;;;;;5063727;28;19943;-86
2023/07/30 11:37:39;;;;;;;;;;;26.00;99.90;;;;;;5059067;28;20011;-86
2023/07/30 11:40:09;;;;;;;;;;;26.30;99.90;;;;;;5057935;28;19913;-87
2023/07/30 11:42:35;;;;;;;;;;;26.90;99.90;;;;;;5077687;28;19917;-86
2023/07/30 11:45:37;;;;;;;;;;;27.00;99.90;;;;;;5057977;28;19923;-84
2023/07/30 11:48:09;;;;;;;;;;;26.80;99.90;;;;;;5020179;28;19964;-88
2023/07/30 11:50:49;;;;;;;;;;;25.90;99.90;;;;;;5063717;28;19963;-86
2023/07/30 11:53:15;;;;;;;;;;;25.10;99.90;;;;;;5058522;28;19967;-88
2023/07/30 11:55:41;;;;;;;;;;;24.10;99.90;;;;;;5058931;28;19920;-88
2023/07/30 11:58:07;;;;;;;;;;;23.50;99.90;;;;;;5057935;28;19924;-87
2023/07/30 12:00:33;;;;;;;;;;;23.10;99.90;;;;;;5074471;28;19926;-87
2023/07/30 12:03:03;;;;;;;;;;;23.00;99.90;;;;;;5057775;28;19917;-86
2023/07/30 12:05:32;;;;;;;;;;;22.90;99.90;;;;;;5053934;28;19916;-83
2023/07/30 12:07:58;;;;;;;;;;;22.90;99.90;;;;;;5054908;28;19920;-82
2023/07/30 12:10:23;;;;;;;;;;;23.70;99.90;;;;;;5054050;28;21036;-81
2023/07/30 12:12:52;;;;;;;;;;;24.70;99.90;;;;;;5055352;28;19987;-82
2023/07/30 12:15:17;;;;;;;;;;;25.50;99.90;;;;;;5052981;28;20027;-81
2023/07/30 12:17:43;;;;;;;;;;;25.70;99.90;;;;;;5052788;28;19917;-82
2023/07/30 12:20:09;;;;;;;;;;;25.80;99.90;;;;;;5053198;28;19967;-82
2023/07/30 12:22:38;;;;;;;;;;;25.30;99.90;;;;;;5052251;28;20030;-83
2023/07/30 12:25:04;;;;;;;;;;;24.80;99.90;;;;;;5057204;28;19942;-85
2023/07/30 12:27:30;;;;;;;;;;;24.40;99.90;;;;;;5061403;28;19921;-89
2023/07/30 12:29:55;;;;;;;;;;;24.10;99.90;;;;;;5057307;28;19917;-89
2023/07/30 12:32:21;;;;;;;;;;;23.80;99.90;;;;;;5052804;28;19981;-85
2023/07/30 12:34:46;;;;;;;;;;;23.40;99.90;;;;;;5058385;28;19916;-89
2023/07/30 12:37:12;;;;;;;;;;;23.40;99.90;;;;;;5055015;28;19985;-84
2023/07/30 12:39:37;;;;;;;;;;;24.00;99.90;;;;;;5057472;28;19928;-85
2023/07/30 12:42:03;;;;;;;;;;;25.00;99.90;;;;;;5063999;28;19969;-87
2023/07/30 12:44:28;;;;;;;;;;;25.30;99.90;;;;;;5053901;28;20003;-85
2023/07/30 12:46:54;;;;;;;;;;;25.30;99.90;;;;;;5052533;28;19920;-87
2023/07/30 12:49:20;;;;;;;;;;;25.50;99.90;;;;;;5051491;28;19924;-85
2023/07/30 12:51:45;;;;;;;;;;;26.20;99.90;;;;;;5053604;28;19944;-87
2023/07/30 12:54:10;;;;;;;;;;;26.40;99.90;;;;;;5053068;28;20007;-86
2023/07/30 12:56:36;;;;;;;;;;;26.60;99.90;;;;;;5053560;28;19920;-86
2023/07/30 12:59:01;;;;;;;;;;;26.70;99.90;;;;;;5059506;28;19956;-87
2023/07/30 13:01:27;;;;;;;;;;;26.40;99.90;;;;;;5049057;28;19917;-86
2023/07/30 13:03:54;;;;;;;;;;;26.10;99.90;;;;;;5051009;28;20010;-87
2023/07/30 13:06:22;;;;;;;;;;;25.80;99.90;;;;;;5054537;28;19920;-86
2023/07/30 13:08:48;;;;;;;;;;;25.90;99.90;;;;;;5053786;28;19978;-86
2023/07/30 13:11:13;;;;;;;;;;;26.20;99.90;;;;;;5054637;28;19917;-87
2023/07/30 13:13:39;;;;;;;;;;;26.50;99.90;;;;;;5053501;28;19928;-86
2023/07/30 13:16:04;;;;;;;;;;;26.10;99.90;;;;;;5043552;28;19916;-87
2023/07/30 13:18:30;;;;;;;;;;;25.50;99.90;;;;;;5044037;28;20298;-86
2023/07/30 13:20:55;;;;;;;;;;;25.40;99.90;;;;;;5054278;28;20010;-86
2023/07/30 13:23:21;;;;;;;;;;;25.60;99.90;;;;;;5048814;28;19916;-86
2023/07/30 13:25:46;;;;;;;;;;;25.80;99.90;;;;;;5051095;28;19917;-85
2023/07/30 13:28:12;;;;;;;;;;;26.30;99.90;;;;;;5048296;28;19921;-84
2023/07/30 13:30:37;;;;;;;;;;;26.00;99.90;;;;;;5041515;28;19921;-84
2023/07/30 13:33:03;;;;;;;;;;;25.30;99.90;;;;;;5048268;28;20223;-86
2023/07/30 13:35:28;;;;;;;;;;;25.20;99.90;;;;;;5050967;28;19917;-85
2023/07/30 13:37:54;;;;;;;;;;;25.70;99.90;;;;;;5051157;28;19921;-86
2023/07/30 13:40:19;;;;;;;;;;;26.40;99.90;;;;;;5051090;28;19921;-86
2023/07/30 13:42:45;;;;;;;;;;;26.80;99.90;;;;;;5042850;28;19917;-85
2023/07/30 13:45:10;;;;;;;;;;;27.10;99.90;;;;;;5056308;28;21749;-84
2023/07/30 13:47:36;;;;;;;;;;;27.40;99.90;;;;;;5049147;28;19917;-87
2023/07/30 13:50:01;;;;;;;;;;;27.70;99.90;;;;;;5044952;28;19963;-86
2023/07/30 13:52:27;;;;;;;;;;;27.80;99.90;;;;;;5044713;28;19920;-87
2023/07/30 13:54:52;;;;;;;;;;;28.00;99.90;;;;;;5045416;28;19916;-89
2023/07/30 13:57:24;;;;;;;;;;;28.30;99.90;;;;;;5042547;28;19943;-87
2023/07/30 13:59:50;;;;;;;;;;;28.40;99.60;;;;;;5071569;28;19977;-86
2023/07/30 14:02:15;;;;;;;;;;;28.20;99.80;;;;;;5070336;28;19916;-86
2023/07/30 14:04:41;;;;;;;;;;;28.10;98.80;;;;;;5054687;28;19919;-86
2023/07/30 14:07:06;;;;;;;;;;;28.20;98.90;;;;;;5072704;28;19917;-86
2023/07/30 14:09:34;;;;;;;;;;;27.80;98.00;;;;;;5058509;28;20428;-86